sensor_id;sensor_type;location;lat;lon;timestamp;temperature;humidity
19898;DHT22;10111;50.814;4.572;2023-03-03T00:00:56;3.00;99.90
19898;DHT22;10111;50.814;4.572;2023-03-03T00:03:23;2.70;99.90
19898;DHT22;10111;50.814;4.572;2023-03-03T00:05:51;2.60;99.90
19898;DHT22;10111;50.814;4.572;2023-03-03T00:08:17;2.60;99.90
19898;DHT22;10111;50.814;4.572;2023-03-03T00:10:43;2.50;99.90
19898;DHT22;10111;50.814;4.572;2023-03-03T00:13:29;2.50;99.90
19898;DHT22;10111;50.814;4.572;2023-03-03T00:18:44;2.50;99.90
19898;DHT22;10111;50.814;4.572;2023-03-03T00:23:46;2.40;99.90
19898;DHT22;10111;50.814;4.572;2023-03-03T00:26:29;2.40;99.90
19898;DHT22;10111;50.814;4.572;2023-03-03T00:28:56;2.20;99.90
19898;DHT22;10111;50.814;4.572;2023-03-03T00:31:32;2.30;99.90
19898;DHT22;10111;50.814;4.572;2023-03-03T00:36:41;2.40;99.90
19898;DHT22;10111;50.814;4.572;2023-03-03T00:41:42;2.50;99.90
19898;DHT22;10111;50.814;4.572;2023-03-03T00:44:40;2.40;99.90
19898;DHT22;10111;50.814;4.572;2023-03-03T00:47:29;2.50;99.90
19898;DHT22;10111;50.814;4.572;2023-03-03T00:55:24;2.60;99.90
19898;DHT22;10111;50.814;4.572;2023-03-03T00:57:50;2.50;99.90
19898;DHT22;10111;50.814;4.572;2023-03-03T01:00:15;2.50;99.90
19898;DHT22;10111;50.814;4.572;2023-03-03T01:02:41;2.50;99.90
19898;DHT22;10111;50.814;4.572;2023-03-03T01:05:12;2.40;99.90
19898;DHT22;10111;50.814;4.572;2023-03-03T01:07:38;2.30;99.90
19898;DHT22;10111;50.814;4.572;2023-03-03T01:10:04;2.30;99.90
19898;DHT22;10111;50.814;4.572;2023-03-03T01:12:30;2.30;99.90
19898;DHT22;10111;50.814;4.572;2023-03-03T01:14:55;2.20;99.90
19898;DHT22;10111;50.814;4.572;2023-03-03T01:17:21;2.20;99.90
19898;DHT22;10111;50.814;4.572;2023-03-03T01:19:47;2.10;99.90
19898;DHT22;10111;50.814;4.572;2023-03-03T01:22:12;2.10;99.90
19898;DHT22;10111;50.814;4.572;2023-03-03T01:24:38;2.10;99.90
19898;DHT22;10111;50.814;4.572;2023-03-03T01:27:04;2.10;99.90
19898;DHT22;10111;50.814;4.572;2023-03-03T01:29:29;2.00;99.90
19898;DHT22;10111;50.814;4.572;2023-03-03T01:31:55;2.00;99.90
19898;DHT22;10111;50.814;4.572;2023-03-03T01:34:21;1.90;99.90
19898;DHT22;10111;50.814;4.572;2023-03-03T01:36:46;1.80;99.90
19898;DHT22;10111;50.814;4.572;2023-03-03T01:39:12;1.80;99.90
19898;DHT22;10111;50.814;4.572;2023-03-03T01:41:38;1.70;99.90
19898;DHT22;10111;50.814;4.572;2023-03-03T01:44:04;1.60;99.90
19898;DHT22;10111;50.814;4.572;2023-03-03T01:46:46;1.60;99.90
19898;DHT22;10111;50.814;4.572;2023-03-03T01:49:22;1.50;99.90
19898;DHT22;10111;50.814;4.572;2023-03-03T01:51:54;1.50;99.90
19898;DHT22;10111;50.814;4.572;2023-03-03T01:54:28;1.50;99.90
19898;DHT22;10111;50.814;4.572;2023-03-03T01:56:57;1.40;99.90
19898;DHT22;10111;50.814;4.572;2023-03-03T01:59:28;1.50;99.90
19898;DHT22;10111;50.814;4.572;2023-03-03T02:01:55;1.30;99.90
19898;DHT22;10111;50.814;4.572;2023-03-03T02:04:21;1.30;99.90
19898;DHT22;10111;50.814;4.572;2023-03-03T02:06:53;1.20;99.90
19898;DHT22;10111;50.814;4.572;2023-03-03T02:12:33;1.20;99.90
19898;DHT22;10111;50.814;4.572;2023-03-03T02:15:01;1.20;99.90
19898;DHT22;10111;50.814;4.572;2023-03-03T02:17:26;1.10;99.90
19898;DHT22;10111;50.814;4.572;2023-03-03T02:20:06;1.10;99.90
19898;DHT22;10111;50.814;4.572;2023-03-03T02:22:43;1.10;99.90
19898;DHT22;10111;50.814;4.572;2023-03-03T02:25:18;1.10;99.90
19898;DHT22;10111;50.814;4.572;2023-03-03T02:27:45;1.10;99.90
19898;DHT22;10111;50.814;4.572;2023-03-03T02:30:17;1.10;99.90
19898;DHT22;10111;50.814;4.572;2023-03-03T02:32:43;1.10;99.90
19898;DHT22;10111;50.814;4.572;2023-03-03T02:35:26;1.00;99.90
19898;DHT22;10111;50.814;4.572;2023-03-03T02:37:52;1.00;99.90
19898;DHT22;10111;50.814;4.572;2023-03-03T02:40:20;1.10;99.90
19898;DHT22;10111;50.814;4.572;2023-03-03T02:42:51;1.10;99.90
19898;DHT22;10111;50.814;4.572;2023-03-03T02:45:18;1.20;99.90
19898;DHT22;10111;50.814;4.572;2023-03-03T02:47:50;1.10;99.90
19898;DHT22;10111;50.814;4.572;2023-03-03T02:50:16;1.10;99.90
19898;DHT22;10111;50.814;4.572;2023-03-03T02:52:41;1.10;99.90
19898;DHT22;10111;50.814;4.572;2023-03-03T02:55:07;1.10;99.90
19898;DHT22;10111;50.814;4.572;2023-03-03T02:57:33;1.10;99.90
19898;DHT22;10111;50.814;4.572;2023-03-03T02:59:59;1.10;99.90
19898;DHT22;10111;50.814;4.572;2023-03-03T03:02:24;1.10;99.90
19898;DHT22;10111;50.814;4.572;2023-03-03T03:04:51;1.10;99.90
19898;DHT22;10111;50.814;4.572;2023-03-03T03:07:17;1.20;99.90
19898;DHT22;10111;50.814;4.572;2023-03-03T03:09:42;1.30;99.90
19898;DHT22;10111;50.814;4.572;2023-03-03T03:12:08;1.40;99.90
19898;DHT22;10111;50.814;4.572;2023-03-03T03:14:34;1.50;99.90
19898;DHT22;10111;50.814;4.572;2023-03-03T03:17:00;1.80;99.90
19898;DHT22;10111;50.814;4.572;2023-03-03T03:19:26;1.60;99.90
19898;DHT22;10111;50.814;4.572;2023-03-03T03:21:52;1.70;99.90
19898;DHT22;10111;50.814;4.572;2023-03-03T03:24:18;1.80;99.90
19898;DHT22;10111;50.814;4.572;2023-03-03T03:26:44;1.90;99.90
19898;DHT22;10111;50.814;4.572;2023-03-03T03:29:09;2.00;99.90
19898;DHT22;10111;50.814;4.572;2023-03-03T03:31:35;2.10;99.90
19898;DHT22;10111;50.814;4.572;2023-03-03T03:34:01;2.30;99.90
19898;DHT22;10111;50.814;4.572;2023-03-03T03:36:27;2.40;99.90
19898;DHT22;10111;50.814;4.572;2023-03-03T03:38:52;2.50;99.90
19898;DHT22;10111;50.814;4.572;2023-03-03T03:41:18;2.60;99.90
19898;DHT22;10111;50.814;4.572;2023-03-03T03:43:44;2.50;99.90
19898;DHT22;10111;50.814;4.572;2023-03-03T03:46:10;2.30;99.90
19898;DHT22;10111;50.814;4.572;2023-03-03T03:48:35;2.10;99.90
19898;DHT22;10111;50.814;4.572;2023-03-03T03:51:01;2.20;99.90
19898;DHT22;10111;50.814;4.572;2023-03-03T03:53:27;2.10;99.90
19898;DHT22;10111;50.814;4.572;2023-03-03T03:55:53;2.00;99.90
19898;DHT22;10111;50.814;4.572;2023-03-03T03:58:19;1.90;99.90
19898;DHT22;10111;50.814;4.572;2023-03-03T04:00:46;2.20;99.90
19898;DHT22;10111;50.814;4.572;2023-03-03T04:03:12;2.50;99.90
19898;DHT22;10111;50.814;4.572;2023-03-03T04:05:51;2.30;99.90
19898;DHT22;10111;50.814;4.572;2023-03-03T04:08:17;2.30;99.90
19898;DHT22;10111;50.814;4.572;2023-03-03T04:10:43;2.40;99.90
19898;DHT22;10111;50.814;4.572;2023-03-03T04:13:09;2.20;99.90
19898;DHT22;10111;50.814;4.572;2023-03-03T04:15:34;1.90;99.90
19898;DHT22;10111;50.814;4.572;2023-03-03T04:18:00;1.80;99.90
19898;DHT22;10111;50.814;4.572;2023-03-03T04:20:26;1.90;99.90
19898;DHT22;10111;50.814;4.572;2023-03-03T04:22:52;2.00;99.90
19898;DHT22;10111;50.814;4.572;2023-03-03T04:25:17;1.90;99.90
19898;DHT22;10111;50.814;4.572;2023-03-03T04:27:44;1.90;99.90
19898;DHT22;10111;50.814;4.572;2023-03-03T04:30:10;1.60;99.90
19898;DHT22;10111;50.814;4.572;2023-03-03T04:32:36;1.70;99.90
19898;DHT22;10111;50.814;4.572;2023-03-03T04:35:02;1.80;99.90
19898;DHT22;10111;50.814;4.572;2023-03-03T04:37:28;1.60;99.90
19898;DHT22;10111;50.814;4.572;2023-03-03T04:39:54;1.60;99.90
19898;DHT22;10111;50.814;4.572;2023-03-03T04:42:19;1.20;99.90
19898;DHT22;10111;50.814;4.572;2023-03-03T04:44:45;1.30;99.90
19898;DHT22;10111;50.814;4.572;2023-03-03T04:47:11;1.40;99.90
19898;DHT22;10111;50.814;4.572;2023-03-03T04:49:36;1.60;99.90
19898;DHT22;10111;50.814;4.572;2023-03-03T04:52:03;1.50;99.90
19898;DHT22;10111;50.814;4.572;2023-03-03T04:54:28;1.50;99.90
19898;DHT22;10111;50.814;4.572;2023-03-03T04:56:54;1.70;99.90
19898;DHT22;10111;50.814;4.572;2023-03-03T04:59:19;1.50;99.90
19898;DHT22;10111;50.814;4.572;2023-03-03T05:01:45;1.40;99.90
19898;DHT22;10111;50.814;4.572;2023-03-03T05:04:11;1.50;99.90
19898;DHT22;10111;50.814;4.572;2023-03-03T05:06:37;1.60;99.90
19898;DHT22;10111;50.814;4.572;2023-03-03T05:09:02;1.70;99.90
19898;DHT22;10111;50.814;4.572;2023-03-03T05:11:28;1.70;99.90
19898;DHT22;10111;50.814;4.572;2023-03-03T05:13:54;1.50;99.90
19898;DHT22;10111;50.814;4.572;2023-03-03T05:16:20;1.60;99.90
19898;DHT22;10111;50.814;4.572;2023-03-03T05:18:46;1.70;99.90
19898;DHT22;10111;50.814;4.572;2023-03-03T05:21:13;1.90;99.90
19898;DHT22;10111;50.814;4.572;2023-03-03T05:23:38;1.60;99.90
19898;DHT22;10111;50.814;4.572;2023-03-03T05:26:04;1.60;99.90
19898;DHT22;10111;50.814;4.572;2023-03-03T05:28:31;1.70;99.90
19898;DHT22;10111;50.814;4.572;2023-03-03T05:30:56;1.90;99.90
19898;DHT22;10111;50.814;4.572;2023-03-03T05:33:22;1.80;99.90
19898;DHT22;10111;50.814;4.572;2023-03-03T05:35:53;1.50;99.90
19898;DHT22;10111;50.814;4.572;2023-03-03T05:38:18;1.60;99.90
19898;DHT22;10111;50.814;4.572;2023-03-03T05:40:44;1.50;99.90
19898;DHT22;10111;50.814;4.572;2023-03-03T05:43:11;1.40;99.90
19898;DHT22;10111;50.814;4.572;2023-03-03T05:45:36;1.40;99.90
19898;DHT22;10111;50.814;4.572;2023-03-03T05:48:02;1.30;99.90
19898;DHT22;10111;50.814;4.572;2023-03-03T05:50:29;1.30;99.90
19898;DHT22;10111;50.814;4.572;2023-03-03T05:52:55;1.30;99.90
19898;DHT22;10111;50.814;4.572;2023-03-03T05:55:21;1.40;99.90
19898;DHT22;10111;50.814;4.572;2023-03-03T05:57:46;1.40;99.90
19898;DHT22;10111;50.814;4.572;2023-03-03T06:00:13;1.40;99.90
19898;DHT22;10111;50.814;4.572;2023-03-03T06:02:40;1.50;99.90
19898;DHT22;10111;50.814;4.572;2023-03-03T06:05:06;1.60;99.90
19898;DHT22;10111;50.814;4.572;2023-03-03T06:07:32;1.80;99.90
19898;DHT22;10111;50.814;4.572;2023-03-03T06:09:57;1.70;99.90
19898;DHT22;10111;50.814;4.572;2023-03-03T06:12:23;1.90;99.90
19898;DHT22;10111;50.814;4.572;2023-03-03T06:14:48;2.00;99.90
19898;DHT22;10111;50.814;4.572;2023-03-03T06:17:14;2.10;99.90
19898;DHT22;10111;50.814;4.572;2023-03-03T06:19:40;1.90;99.90
19898;DHT22;10111;50.814;4.572;2023-03-03T06:22:06;2.00;99.90
19898;DHT22;10111;50.814;4.572;2023-03-03T06:24:32;1.90;99.90
19898;DHT22;10111;50.814;4.572;2023-03-03T06:26:58;2.00;99.90
19898;DHT22;10111;50.814;4.572;2023-03-03T06:29:24;1.80;99.90
19898;DHT22;10111;50.814;4.572;2023-03-03T06:31:50;1.70;99.90
19898;DHT22;10111;50.814;4.572;2023-03-03T06:34:16;1.60;99.90
19898;DHT22;10111;50.814;4.572;2023-03-03T06:36:41;1.80;99.90
19898;DHT22;10111;50.814;4.572;2023-03-03T06:39:07;1.70;99.90
19898;DHT22;10111;50.814;4.572;2023-03-03T06:41:33;1.80;99.90
19898;DHT22;10111;50.814;4.572;2023-03-03T06:43:59;2.00;99.90
19898;DHT22;10111;50.814;4.572;2023-03-03T06:46:25;1.80;99.90
19898;DHT22;10111;50.814;4.572;2023-03-03T06:48:51;1.80;99.90
19898;DHT22;10111;50.814;4.572;2023-03-03T06:54:14;2.00;99.90
19898;DHT22;10111;50.814;4.572;2023-03-03T06:56:44;2.00;99.90
19898;DHT22;10111;50.814;4.572;2023-03-03T06:59:16;2.20;99.90
19898;DHT22;10111;50.814;4.572;2023-03-03T07:01:45;1.90;99.90
19898;DHT22;10111;50.814;4.572;2023-03-03T07:04:16;1.70;99.90
19898;DHT22;10111;50.814;4.572;2023-03-03T07:06:45;1.50;99.90
19898;DHT22;10111;50.814;4.572;2023-03-03T07:09:27;1.60;99.90
19898;DHT22;10111;50.814;4.572;2023-03-03T07:12:32;1.50;99.90
19898;DHT22;10111;50.814;4.572;2023-03-03T07:15:16;1.40;99.90
19898;DHT22;10111;50.814;4.572;2023-03-03T07:17:49;1.30;99.90
19898;DHT22;10111;50.814;4.572;2023-03-03T07:20:32;1.20;99.90
19898;DHT22;10111;50.814;4.572;2023-03-03T07:22:59;1.20;99.90
19898;DHT22;10111;50.814;4.572;2023-03-03T07:25:32;1.40;99.90
19898;DHT22;10111;50.814;4.572;2023-03-03T07:28:17;1.40;99.90
19898;DHT22;10111;50.814;4.572;2023-03-03T07:30:44;1.30;99.90
19898;DHT22;10111;50.814;4.572;2023-03-03T07:33:28;1.10;99.90
19898;DHT22;10111;50.814;4.572;2023-03-03T07:35:56;1.20;99.90
19898;DHT22;10111;50.814;4.572;2023-03-03T07:38:41;1.50;99.90
19898;DHT22;10111;50.814;4.572;2023-03-03T07:41:19;1.80;99.90
19898;DHT22;10111;50.814;4.572;2023-03-03T07:43:51;1.70;99.90
19898;DHT22;10111;50.814;4.572;2023-03-03T07:46:34;1.80;99.90
19898;DHT22;10111;50.814;4.572;2023-03-03T07:49:14;1.80;99.90
19898;DHT22;10111;50.814;4.572;2023-03-03T07:51:42;2.00;99.90
19898;DHT22;10111;50.814;4.572;2023-03-03T07:54:28;1.90;99.90
19898;DHT22;10111;50.814;4.572;2023-03-03T07:56:58;1.40;99.90
19898;DHT22;10111;50.814;4.572;2023-03-03T07:59:26;1.10;99.90
19898;DHT22;10111;50.814;4.572;2023-03-03T08:01:56;1.10;99.90
19898;DHT22;10111;50.814;4.572;2023-03-03T08:04:41;1.00;99.90
19898;DHT22;10111;50.814;4.572;2023-03-03T08:07:15;0.90;99.90
19898;DHT22;10111;50.814;4.572;2023-03-03T08:12:30;1.00;99.90
19898;DHT22;10111;50.814;4.572;2023-03-03T08:15:17;1.10;99.90
19898;DHT22;10111;50.814;4.572;2023-03-03T08:17:43;1.20;99.90
19898;DHT22;10111;50.814;4.572;2023-03-03T08:22:54;1.50;99.90
19898;DHT22;10111;50.814;4.572;2023-03-03T08:25:20;1.30;99.90
19898;DHT22;10111;50.814;4.572;2023-03-03T08:27:45;1.40;99.90
19898;DHT22;10111;50.814;4.572;2023-03-03T08:30:11;1.50;99.90
19898;DHT22;10111;50.814;4.572;2023-03-03T08:32:37;1.50;99.90
19898;DHT22;10111;50.814;4.572;2023-03-03T08:35:03;1.70;99.90
19898;DHT22;10111;50.814;4.572;2023-03-03T08:37:28;1.70;99.90
19898;DHT22;10111;50.814;4.572;2023-03-03T08:39:54;1.80;99.90
19898;DHT22;10111;50.814;4.572;2023-03-03T08:42:20;1.80;99.90
19898;DHT22;10111;50.814;4.572;2023-03-03T08:44:45;2.00;99.90
19898;DHT22;10111;50.814;4.572;2023-03-03T08:47:11;1.80;99.90
19898;DHT22;10111;50.814;4.572;2023-03-03T08:49:37;1.80;99.90
19898;DHT22;10111;50.814;4.572;2023-03-03T08:52:02;2.00;99.90
19898;DHT22;10111;50.814;4.572;2023-03-03T08:54:28;2.20;99.90
19898;DHT22;10111;50.814;4.572;2023-03-03T08:56:54;2.20;99.90
19898;DHT22;10111;50.814;4.572;2023-03-03T08:59:20;2.50;99.90
19898;DHT22;10111;50.814;4.572;2023-03-03T09:01:46;2.30;99.90
19898;DHT22;10111;50.814;4.572;2023-03-03T09:04:12;1.90;99.90
19898;DHT22;10111;50.814;4.572;2023-03-03T09:06:38;1.90;99.90
19898;DHT22;10111;50.814;4.572;2023-03-03T09:09:03;1.90;99.90
19898;DHT22;10111;50.814;4.572;2023-03-03T09:11:29;1.80;99.90
19898;DHT22;10111;50.814;4.572;2023-03-03T09:14:17;1.90;99.90
19898;DHT22;10111;50.814;4.572;2023-03-03T09:16:50;2.00;99.90
19898;DHT22;10111;50.814;4.572;2023-03-03T09:19:26;2.00;99.90
19898;DHT22;10111;50.814;4.572;2023-03-03T09:21:54;2.00;99.90
19898;DHT22;10111;50.814;4.572;2023-03-03T09:24:26;2.20;99.90
19898;DHT22;10111;50.814;4.572;2023-03-03T09:26:52;2.10;99.90
19898;DHT22;10111;50.814;4.572;2023-03-03T09:32:16;2.40;99.90
19898;DHT22;10111;50.814;4.572;2023-03-03T09:34:43;2.50;99.90
19898;DHT22;10111;50.814;4.572;2023-03-03T09:37:26;2.50;99.90
19898;DHT22;10111;50.814;4.572;2023-03-03T09:39:56;2.50;99.90
19898;DHT22;10111;50.814;4.572;2023-03-03T09:42:55;2.20;99.90
19898;DHT22;10111;50.814;4.572;2023-03-03T09:45:47;2.10;99.90
19898;DHT22;10111;50.814;4.572;2023-03-03T09:48:23;2.00;99.90
19898;DHT22;10111;50.814;4.572;2023-03-03T09:56:37;1.90;99.90
19898;DHT22;10111;50.814;4.572;2023-03-03T09:59:16;2.00;99.90
19898;DHT22;10111;50.814;4.572;2023-03-03T10:01:50;2.00;99.90
19898;DHT22;10111;50.814;4.572;2023-03-03T10:10:05;2.30;99.90
19898;DHT22;10111;50.814;4.572;2023-03-03T10:15:35;2.20;99.90
19898;DHT22;10111;50.814;4.572;2023-03-03T10:18:18;2.50;99.90
19898;DHT22;10111;50.814;4.572;2023-03-03T10:37:32;2.90;99.90
19898;DHT22;10111;50.814;4.572;2023-03-03T10:40:10;3.00;99.90
19898;DHT22;10111;50.814;4.572;2023-03-03T10:47:48;3.40;99.90
19898;DHT22;10111;50.814;4.572;2023-03-03T11:01:03;3.60;99.90
19898;DHT22;10111;50.814;4.572;2023-03-03T11:06:17;3.60;99.90
19898;DHT22;10111;50.814;4.572;2023-03-03T11:08:54;3.60;99.90
19898;DHT22;10111;50.814;4.572;2023-03-03T11:11:28;3.50;99.90
19898;DHT22;10111;50.814;4.572;2023-03-03T11:17:17;3.90;99.90
19898;DHT22;10111;50.814;4.572;2023-03-03T11:22:44;3.70;99.90
19898;DHT22;10111;50.814;4.572;2023-03-03T11:25:29;3.50;99.90
19898;DHT22;10111;50.814;4.572;2023-03-03T11:28:10;3.60;99.90
19898;DHT22;10111;50.814;4.572;2023-03-03T11:33:36;3.80;99.90
19898;DHT22;10111;50.814;4.572;2023-03-03T11:41:56;4.10;99.90
19898;DHT22;10111;50.814;4.572;2023-03-03T11:46:49;4.50;99.90
19898;DHT22;10111;50.814;4.572;2023-03-03T11:49:31;4.70;99.90
19898;DHT22;10111;50.814;4.572;2023-03-03T11:58:16;4.20;99.90
19898;DHT22;10111;50.814;4.572;2023-03-03T12:03:31;4.20;99.90
19898;DHT22;10111;50.814;4.572;2023-03-03T12:13:57;4.60;99.90
19898;DHT22;10111;50.814;4.572;2023-03-03T12:27:53;5.10;99.90
19898;DHT22;10111;50.814;4.572;2023-03-03T12:38:27;5.50;99.90
19898;DHT22;10111;50.814;4.572;2023-03-03T12:41:19;5.30;99.90
19898;DHT22;10111;50.814;4.572;2023-03-03T12:49:07;5.50;99.90
19898;DHT22;10111;50.814;4.572;2023-03-03T13:00:26;5.90;99.90
19898;DHT22;10111;50.814;4.572;2023-03-03T13:04:02;6.00;99.90
19898;DHT22;10111;50.814;4.572;2023-03-03T13:14:38;5.80;99.90
19898;DHT22;10111;50.814;4.572;2023-03-03T13:20:15;6.10;99.90
19898;DHT22;10111;50.814;4.572;2023-03-03T13:25:43;6.10;99.90
19898;DHT22;10111;50.814;4.572;2023-03-03T13:28:22;6.50;99.90
19898;DHT22;10111;50.814;4.572;2023-03-03T13:30:57;6.20;99.90
19898;DHT22;10111;50.814;4.572;2023-03-03T13:33:34;6.40;99.90
19898;DHT22;10111;50.814;4.572;2023-03-03T13:38:30;6.60;99.90
19898;DHT22;10111;50.814;4.572;2023-03-03T13:41:08;6.70;99.90
19898;DHT22;10111;50.814;4.572;2023-03-03T13:43:42;6.90;99.90
19898;DHT22;10111;50.814;4.572;2023-03-03T13:46:27;7.00;99.90
19898;DHT22;10111;50.814;4.572;2023-03-03T13:52:10;6.70;99.90
19898;DHT22;10111;50.814;4.572;2023-03-03T14:05:35;6.50;99.90
19898;DHT22;10111;50.814;4.572;2023-03-03T14:10:48;6.30;99.90
19898;DHT22;10111;50.814;4.572;2023-03-03T14:16:08;6.40;99.90
19898;DHT22;10111;50.814;4.572;2023-03-03T14:19:01;6.40;99.90
19898;DHT22;10111;50.814;4.572;2023-03-03T14:21:41;6.40;99.90
19898;DHT22;10111;50.814;4.572;2023-03-03T14:24:17;6.40;99.90
19898;DHT22;10111;50.814;4.572;2023-03-03T14:26:50;6.60;99.90
19898;DHT22;10111;50.814;4.572;2023-03-03T14:31:51;6.40;99.90
19898;DHT22;10111;50.814;4.572;2023-03-03T14:36:57;6.60;99.90
19898;DHT22;10111;50.814;4.572;2023-03-03T14:39:33;6.90;99.90
19898;DHT22;10111;50.814;4.572;2023-03-03T14:42:01;6.90;99.90
19898;DHT22;10111;50.814;4.572;2023-03-03T14:44:38;6.60;99.90
19898;DHT22;10111;50.814;4.572;2023-03-03T14:47:25;6.60;99.90
19898;DHT22;10111;50.814;4.572;2023-03-03T14:49:53;6.50;99.90
19898;DHT22;10111;50.814;4.572;2023-03-03T14:52:22;6.40;99.90
19898;DHT22;10111;50.814;4.572;2023-03-03T14:54:54;6.60;99.90
19898;DHT22;10111;50.814;4.572;2023-03-03T14:57:36;6.60;99.90
19898;DHT22;10111;50.814;4.572;2023-03-03T15:10:41;6.40;99.90
19898;DHT22;10111;50.814;4.572;2023-03-03T15:13:34;6.40;99.90
19898;DHT22;10111;50.814;4.572;2023-03-03T15:18:30;6.40;99.90
19898;DHT22;10111;50.814;4.572;2023-03-03T15:21:12;6.50;99.90
19898;DHT22;10111;50.814;4.572;2023-03-03T15:24:24;6.40;99.90
19898;DHT22;10111;50.814;4.572;2023-03-03T15:29:35;6.40;99.90
19898;DHT22;10111;50.814;4.572;2023-03-03T15:32:14;6.60;99.90
19898;DHT22;10111;50.814;4.572;2023-03-03T15:35:02;6.80;99.90
19898;DHT22;10111;50.814;4.572;2023-03-03T15:37:55;6.70;99.90
19898;DHT22;10111;50.814;4.572;2023-03-03T15:40:48;6.70;99.90
19898;DHT22;10111;50.814;4.572;2023-03-03T15:43:44;6.90;99.90
19898;DHT22;10111;50.814;4.572;2023-03-03T15:48:57;6.80;99.90
19898;DHT22;10111;50.814;4.572;2023-03-03T15:51:42;6.70;99.90
19898;DHT22;10111;50.814;4.572;2023-03-03T16:00:02;6.70;99.90
19898;DHT22;10111;50.814;4.572;2023-03-03T16:02:38;6.70;99.90
19898;DHT22;10111;50.814;4.572;2023-03-03T16:13:47;7.00;99.90
19898;DHT22;10111;50.814;4.572;2023-03-03T16:24:42;6.90;99.90
19898;DHT22;10111;50.814;4.572;2023-03-03T16:27:20;6.90;99.90
19898;DHT22;10111;50.814;4.572;2023-03-03T16:32:31;6.90;99.90
19898;DHT22;10111;50.814;4.572;2023-03-03T16:35:21;6.90;99.90
19898;DHT22;10111;50.814;4.572;2023-03-03T16:38:01;7.00;99.90
19898;DHT22;10111;50.814;4.572;2023-03-03T16:45:37;6.90;99.90
19898;DHT22;10111;50.814;4.572;2023-03-03T16:48:20;6.90;99.90
19898;DHT22;10111;50.814;4.572;2023-03-03T16:51:15;6.90;99.90
19898;DHT22;10111;50.814;4.572;2023-03-03T16:53:56;6.70;99.90
19898;DHT22;10111;50.814;4.572;2023-03-03T16:56:35;7.00;99.90
19898;DHT22;10111;50.814;4.572;2023-03-03T17:00:00;6.80;99.90
19898;DHT22;10111;50.814;4.572;2023-03-03T17:02:26;6.80;99.90
19898;DHT22;10111;50.814;4.572;2023-03-03T17:10:51;6.70;99.90
19898;DHT22;10111;50.814;4.572;2023-03-03T17:13:43;6.50;99.90
19898;DHT22;10111;50.814;4.572;2023-03-03T17:16:26;6.50;99.90
19898;DHT22;10111;50.814;4.572;2023-03-03T17:19:17;6.50;99.90
19898;DHT22;10111;50.814;4.572;2023-03-03T17:27:48;6.30;99.90
19898;DHT22;10111;50.814;4.572;2023-03-03T17:30:28;6.20;99.90
19898;DHT22;10111;50.814;4.572;2023-03-03T17:33:19;6.20;99.90
19898;DHT22;10111;50.814;4.572;2023-03-03T17:39:23;6.10;99.90
19898;DHT22;10111;50.814;4.572;2023-03-03T17:42:09;6.00;99.90
19898;DHT22;10111;50.814;4.572;2023-03-03T17:45:08;5.90;99.90
19898;DHT22;10111;50.814;4.572;2023-03-03T17:56:22;5.60;99.90
19898;DHT22;10111;50.814;4.572;2023-03-03T18:04:34;5.40;99.90
19898;DHT22;10111;50.814;4.572;2023-03-03T18:07:27;5.30;99.90
19898;DHT22;10111;50.814;4.572;2023-03-03T18:26:02;5.20;99.90
19898;DHT22;10111;50.814;4.572;2023-03-03T18:28:50;5.40;99.90
19898;DHT22;10111;50.814;4.572;2023-03-03T18:31:27;5.40;99.90
19898;DHT22;10111;50.814;4.572;2023-03-03T18:34:08;5.20;99.90
19898;DHT22;10111;50.814;4.572;2023-03-03T18:44:37;5.30;99.90
19898;DHT22;10111;50.814;4.572;2023-03-03T18:47:03;5.30;99.90
19898;DHT22;10111;50.814;4.572;2023-03-03T18:55:27;5.50;99.90
19898;DHT22;10111;50.814;4.572;2023-03-03T18:58:29;5.60;99.90
19898;DHT22;10111;50.814;4.572;2023-03-03T19:03:54;5.60;99.90
19898;DHT22;10111;50.814;4.572;2023-03-03T19:09:04;5.90;99.90
19898;DHT22;10111;50.814;4.572;2023-03-03T19:16:55;6.10;99.90
19898;DHT22;10111;50.814;4.572;2023-03-03T19:19:24;6.20;99.90
19898;DHT22;10111;50.814;4.572;2023-03-03T19:22:26;6.10;99.90
19898;DHT22;10111;50.814;4.572;2023-03-03T19:27:44;6.10;99.90
19898;DHT22;10111;50.814;4.572;2023-03-03T19:30:42;6.10;99.90
19898;DHT22;10111;50.814;4.572;2023-03-03T19:36:46;6.00;99.90
19898;DHT22;10111;50.814;4.572;2023-03-03T19:42:48;5.90;99.90
19898;DHT22;10111;50.814;4.572;2023-03-03T19:48:44;6.20;99.90
19898;DHT22;10111;50.814;4.572;2023-03-03T19:56:53;6.20;99.90
19898;DHT22;10111;50.814;4.572;2023-03-03T19:59:34;6.10;99.90
19898;DHT22;10111;50.814;4.572;2023-03-03T20:07:57;6.10;99.90
19898;DHT22;10111;50.814;4.572;2023-03-03T20:16:40;6.10;99.90
19898;DHT22;10111;50.814;4.572;2023-03-03T20:24:35;6.20;99.90
19898;DHT22;10111;50.814;4.572;2023-03-03T20:27:12;6.30;99.90
19898;DHT22;10111;50.814;4.572;2023-03-03T20:29:43;6.50;99.90
19898;DHT22;10111;50.814;4.572;2023-03-03T20:46:29;6.70;99.90
19898;DHT22;10111;50.814;4.572;2023-03-03T20:52:03;6.70;99.90
19898;DHT22;10111;50.814;4.572;2023-03-03T21:00:14;6.80;99.90
19898;DHT22;10111;50.814;4.572;2023-03-03T21:03:18;6.90;99.90
19898;DHT22;10111;50.814;4.572;2023-03-03T21:13:57;6.80;99.90
19898;DHT22;10111;50.814;4.572;2023-03-03T21:21:21;6.80;99.90
19898;DHT22;10111;50.814;4.572;2023-03-03T21:23:47;6.70;99.90
19898;DHT22;10111;50.814;4.572;2023-03-03T21:26:12;6.90;99.90
19898;DHT22;10111;50.814;4.572;2023-03-03T21:28:38;6.80;99.90
19898;DHT22;10111;50.814;4.572;2023-03-03T21:31:22;6.90;99.90
19898;DHT22;10111;50.814;4.572;2023-03-03T21:33:53;6.80;99.90
19898;DHT22;10111;50.814;4.572;2023-03-03T21:42:10;6.80;99.90
19898;DHT22;10111;50.814;4.572;2023-03-03T21:47:11;6.80;99.90
19898;DHT22;10111;50.814;4.572;2023-03-03T21:49:43;6.70;99.90
19898;DHT22;10111;50.814;4.572;2023-03-03T21:52:10;6.80;99.90
19898;DHT22;10111;50.814;4.572;2023-03-03T21:54:36;6.60;99.90
19898;DHT22;10111;50.814;4.572;2023-03-03T21:57:02;6.90;99.90
19898;DHT22;10111;50.814;4.572;2023-03-03T21:59:27;6.70;99.90
19898;DHT22;10111;50.814;4.572;2023-03-03T22:01:53;6.80;99.90
19898;DHT22;10111;50.814;4.572;2023-03-03T22:04:19;6.80;99.90
19898;DHT22;10111;50.814;4.572;2023-03-03T22:06:44;6.90;99.90
19898;DHT22;10111;50.814;4.572;2023-03-03T22:09:10;6.80;99.90
19898;DHT22;10111;50.814;4.572;2023-03-03T22:11:36;6.60;99.90
19898;DHT22;10111;50.814;4.572;2023-03-03T22:14:05;6.50;99.90
19898;DHT22;10111;50.814;4.572;2023-03-03T22:16:31;6.50;99.90
19898;DHT22;10111;50.814;4.572;2023-03-03T22:18:56;6.70;99.90
19898;DHT22;10111;50.814;4.572;2023-03-03T22:21:23;6.70;99.90
19898;DHT22;10111;50.814;4.572;2023-03-03T22:23:48;6.80;99.90
19898;DHT22;10111;50.814;4.572;2023-03-03T22:26:14;6.90;99.90
19898;DHT22;10111;50.814;4.572;2023-03-03T22:28:40;7.00;99.90
19898;DHT22;10111;50.814;4.572;2023-03-03T22:31:05;6.90;99.90
19898;DHT22;10111;50.814;4.572;2023-03-03T22:33:31;7.00;99.90
19898;DHT22;10111;50.814;4.572;2023-03-03T22:35:57;6.90;99.90
19898;DHT22;10111;50.814;4.572;2023-03-03T22:38:23;6.90;99.90
19898;DHT22;10111;50.814;4.572;2023-03-03T22:40:50;7.10;99.90
19898;DHT22;10111;50.814;4.572;2023-03-03T22:43:16;6.80;99.90